Arta, Greece
Current Conditions -  °F | °C
As of 4:50 AM on Saturday 29 Nov 2014 (Local Time) from LGPZ Reporting Station
Broken Clouds Broken Clouds  
Wind Chill: 64°   Ceiling: 8000
Heat Index: 64°   Visibility: 6mi
Dew Point: 54°   Wind: 7mph
Humidity: 68%   Direction: 150°SSE
Pressure: 30.18"   Gusts: NA
Location:  39.16°N, 20.99°E
Report Text: LGPZ 290150Z 15006KT 9999 SCT018 BKN080 18/12 Q1022
Loading
Personal Weather Stations






























Interactive Weather Map New forecast layout! Learn more

10-Day Weather Forecast

Advertisements
Track Severe Weather on mobile